sensor_id;sensor_type;location;lat;lon;timestamp;temperature;humidity
59855;DHT22;45732;52.850;6.896;2023-04-06T00:01:31;4.30;99.90
59855;DHT22;45732;52.850;6.896;2023-04-06T00:03:57;4.30;99.90
59855;DHT22;45732;52.850;6.896;2023-04-06T00:06:23;4.20;99.90
59855;DHT22;45732;52.850;6.896;2023-04-06T00:08:49;4.20;99.90
59855;DHT22;45732;52.850;6.896;2023-04-06T00:11:15;4.20;99.90
59855;DHT22;45732;52.850;6.896;2023-04-06T00:13:42;4.10;99.90
59855;DHT22;45732;52.850;6.896;2023-04-06T00:16:08;4.00;99.90
59855;DHT22;45732;52.850;6.896;2023-04-06T00:18:33;4.00;99.90
59855;DHT22;45732;52.850;6.896;2023-04-06T00:20:59;4.00;99.90
59855;DHT22;45732;52.850;6.896;2023-04-06T00:23:25;3.90;99.90
59855;DHT22;45732;52.850;6.896;2023-04-06T00:25:51;3.90;99.90
59855;DHT22;45732;52.850;6.896;2023-04-06T00:28:17;3.90;99.90
59855;DHT22;45732;52.850;6.896;2023-04-06T00:30:42;3.80;99.90
59855;DHT22;45732;52.850;6.896;2023-04-06T00:33:08;3.80;99.90
59855;DHT22;45732;52.850;6.896;2023-04-06T00:35:34;3.70;99.90
59855;DHT22;45732;52.850;6.896;2023-04-06T00:38:00;3.70;99.90
59855;DHT22;45732;52.850;6.896;2023-04-06T00:40:26;3.70;99.90
59855;DHT22;45732;52.850;6.896;2023-04-06T00:42:54;3.70;99.90
59855;DHT22;45732;52.850;6.896;2023-04-06T00:45:20;3.70;99.90
59855;DHT22;45732;52.850;6.896;2023-04-06T00:47:46;3.70;99.90
59855;DHT22;45732;52.850;6.896;2023-04-06T00:50:12;3.60;99.90
59855;DHT22;45732;52.850;6.896;2023-04-06T00:52:37;3.60;99.90
59855;DHT22;45732;52.850;6.896;2023-04-06T00:55:03;3.50;99.90
59855;DHT22;45732;52.850;6.896;2023-04-06T00:57:29;3.50;99.90
59855;DHT22;45732;52.850;6.896;2023-04-06T00:59:56;3.50;99.90
59855;DHT22;45732;52.850;6.896;2023-04-06T01:02:23;3.50;99.90
59855;DHT22;45732;52.850;6.896;2023-04-06T01:04:48;3.40;99.90
59855;DHT22;45732;52.850;6.896;2023-04-06T01:07:14;3.40;99.90
59855;DHT22;45732;52.850;6.896;2023-04-06T01:09:40;3.40;99.90
59855;DHT22;45732;52.850;6.896;2023-04-06T01:12:07;3.40;99.90
59855;DHT22;45732;52.850;6.896;2023-04-06T01:14:33;3.30;99.90
59855;DHT22;45732;52.850;6.896;2023-04-06T01:17:00;3.20;99.90
59855;DHT22;45732;52.850;6.896;2023-04-06T01:19:26;3.20;99.90
59855;DHT22;45732;52.850;6.896;2023-04-06T01:21:52;3.20;99.90
59855;DHT22;45732;52.850;6.896;2023-04-06T01:24:19;3.10;99.90
59855;DHT22;45732;52.850;6.896;2023-04-06T01:26:45;3.10;99.90
59855;DHT22;45732;52.850;6.896;2023-04-06T01:29:11;3.10;99.90
59855;DHT22;45732;52.850;6.896;2023-04-06T01:31:38;3.10;99.90
59855;DHT22;45732;52.850;6.896;2023-04-06T01:34:04;3.10;99.90
59855;DHT22;45732;52.850;6.896;2023-04-06T01:36:30;3.00;99.90
59855;DHT22;45732;52.850;6.896;2023-04-06T01:38:56;3.00;99.90
59855;DHT22;45732;52.850;6.896;2023-04-06T01:41:22;2.90;99.90
59855;DHT22;45732;52.850;6.896;2023-04-06T01:43:48;2.90;99.90
59855;DHT22;45732;52.850;6.896;2023-04-06T01:46:15;3.00;99.90
59855;DHT22;45732;52.850;6.896;2023-04-06T01:48:41;3.00;99.90
59855;DHT22;45732;52.850;6.896;2023-04-06T01:51:07;2.90;99.90
59855;DHT22;45732;52.850;6.896;2023-04-06T01:53:32;2.90;99.90
59855;DHT22;45732;52.850;6.896;2023-04-06T01:55:58;2.90;99.90
59855;DHT22;45732;52.850;6.896;2023-04-06T01:58:24;2.90;99.90
59855;DHT22;45732;52.850;6.896;2023-04-06T02:00:50;2.90;99.90
59855;DHT22;45732;52.850;6.896;2023-04-06T02:03:16;2.90;99.90
59855;DHT22;45732;52.850;6.896;2023-04-06T02:05:42;2.80;99.90
59855;DHT22;45732;52.850;6.896;2023-04-06T02:08:08;2.80;99.90
59855;DHT22;45732;52.850;6.896;2023-04-06T02:10:33;2.80;99.90
59855;DHT22;45732;52.850;6.896;2023-04-06T02:13:00;2.70;99.90
59855;DHT22;45732;52.850;6.896;2023-04-06T02:15:26;2.70;99.90
59855;DHT22;45732;52.850;6.896;2023-04-06T02:17:52;2.70;99.90
59855;DHT22;45732;52.850;6.896;2023-04-06T02:20:18;2.70;99.90
59855;DHT22;45732;52.850;6.896;2023-04-06T02:22:44;2.60;99.90
59855;DHT22;45732;52.850;6.896;2023-04-06T02:25:10;2.70;99.90
59855;DHT22;45732;52.850;6.896;2023-04-06T02:27:36;2.70;99.90
59855;DHT22;45732;52.850;6.896;2023-04-06T02:30:03;2.70;99.90
59855;DHT22;45732;52.850;6.896;2023-04-06T02:32:29;2.70;99.90
59855;DHT22;45732;52.850;6.896;2023-04-06T02:34:54;2.70;99.90
59855;DHT22;45732;52.850;6.896;2023-04-06T02:37:20;2.70;99.90
59855;DHT22;45732;52.850;6.896;2023-04-06T02:39:47;2.70;99.90
59855;DHT22;45732;52.850;6.896;2023-04-06T02:42:13;2.60;99.90
59855;DHT22;45732;52.850;6.896;2023-04-06T02:44:43;2.60;99.90
59855;DHT22;45732;52.850;6.896;2023-04-06T02:47:09;2.60;99.90
59855;DHT22;45732;52.850;6.896;2023-04-06T02:49:36;2.60;99.90
59855;DHT22;45732;52.850;6.896;2023-04-06T02:52:02;2.70;99.90
59855;DHT22;45732;52.850;6.896;2023-04-06T02:54:28;2.80;99.90
59855;DHT22;45732;52.850;6.896;2023-04-06T02:56:53;2.80;99.90
59855;DHT22;45732;52.850;6.896;2023-04-06T02:59:19;2.80;99.90
59855;DHT22;45732;52.850;6.896;2023-04-06T03:01:45;2.70;99.90
59855;DHT22;45732;52.850;6.896;2023-04-06T03:04:10;2.70;99.90
59855;DHT22;45732;52.850;6.896;2023-04-06T03:06:36;2.70;99.90
59855;DHT22;45732;52.850;6.896;2023-04-06T03:09:02;2.70;99.90
59855;DHT22;45732;52.850;6.896;2023-04-06T03:11:28;2.70;99.90
59855;DHT22;45732;52.850;6.896;2023-04-06T03:13:54;2.70;99.90
59855;DHT22;45732;52.850;6.896;2023-04-06T03:16:20;2.70;99.90
59855;DHT22;45732;52.850;6.896;2023-04-06T03:18:45;2.80;99.90
59855;DHT22;45732;52.850;6.896;2023-04-06T03:21:13;2.70;99.90
59855;DHT22;45732;52.850;6.896;2023-04-06T03:23:41;2.80;99.90
59855;DHT22;45732;52.850;6.896;2023-04-06T03:26:06;2.80;99.90
59855;DHT22;45732;52.850;6.896;2023-04-06T03:28:32;2.80;99.90
59855;DHT22;45732;52.850;6.896;2023-04-06T03:30:58;2.80;99.90
59855;DHT22;45732;52.850;6.896;2023-04-06T03:33:24;2.80;99.90
59855;DHT22;45732;52.850;6.896;2023-04-06T03:35:53;2.90;99.90
59855;DHT22;45732;52.850;6.896;2023-04-06T03:38:18;2.80;99.90
59855;DHT22;45732;52.850;6.896;2023-04-06T03:40:44;2.80;99.90
59855;DHT22;45732;52.850;6.896;2023-04-06T03:43:10;2.80;99.90
59855;DHT22;45732;52.850;6.896;2023-04-06T03:45:36;2.80;99.90
59855;DHT22;45732;52.850;6.896;2023-04-06T03:48:02;2.70;99.90
59855;DHT22;45732;52.850;6.896;2023-04-06T03:50:28;2.80;99.90
59855;DHT22;45732;52.850;6.896;2023-04-06T03:52:54;2.70;99.90
59855;DHT22;45732;52.850;6.896;2023-04-06T03:55:19;2.70;99.90
59855;DHT22;45732;52.850;6.896;2023-04-06T03:57:45;2.70;99.90
59855;DHT22;45732;52.850;6.896;2023-04-06T04:00:11;2.70;99.90
59855;DHT22;45732;52.850;6.896;2023-04-06T04:02:37;2.80;99.90
59855;DHT22;45732;52.850;6.896;2023-04-06T04:05:03;2.80;99.90
59855;DHT22;45732;52.850;6.896;2023-04-06T04:07:29;2.80;99.90
59855;DHT22;45732;52.850;6.896;2023-04-06T04:09:56;2.80;99.90
59855;DHT22;45732;52.850;6.896;2023-04-06T04:12:21;2.70;99.90
59855;DHT22;45732;52.850;6.896;2023-04-06T04:14:47;2.80;99.90
59855;DHT22;45732;52.850;6.896;2023-04-06T04:17:13;2.80;99.90
59855;DHT22;45732;52.850;6.896;2023-04-06T04:19:38;2.80;99.90
59855;DHT22;45732;52.850;6.896;2023-04-06T04:22:04;2.90;99.90
59855;DHT22;45732;52.850;6.896;2023-04-06T04:24:31;2.90;99.90
59855;DHT22;45732;52.850;6.896;2023-04-06T04:26:57;2.80;99.90
59855;DHT22;45732;52.850;6.896;2023-04-06T04:29:22;2.80;99.90
59855;DHT22;45732;52.850;6.896;2023-04-06T04:31:49;2.80;99.90
59855;DHT22;45732;52.850;6.896;2023-04-06T04:34:15;2.80;99.90
59855;DHT22;45732;52.850;6.896;2023-04-06T04:36:41;2.70;99.90
59855;DHT22;45732;52.850;6.896;2023-04-06T04:39:07;2.70;99.90
59855;DHT22;45732;52.850;6.896;2023-04-06T04:41:33;2.70;99.90
59855;DHT22;45732;52.850;6.896;2023-04-06T04:43:59;2.60;99.90
59855;DHT22;45732;52.850;6.896;2023-04-06T04:46:25;2.60;99.90
59855;DHT22;45732;52.850;6.896;2023-04-06T04:48:51;2.60;99.90
59855;DHT22;45732;52.850;6.896;2023-04-06T04:51:17;2.60;99.90
59855;DHT22;45732;52.850;6.896;2023-04-06T04:53:42;2.70;99.90
59855;DHT22;45732;52.850;6.896;2023-04-06T04:56:08;2.60;99.90
59855;DHT22;45732;52.850;6.896;2023-04-06T04:58:34;2.60;99.90
59855;DHT22;45732;52.850;6.896;2023-04-06T05:01:01;2.60;99.90
59855;DHT22;45732;52.850;6.896;2023-04-06T05:03:27;2.70;99.90
59855;DHT22;45732;52.850;6.896;2023-04-06T05:05:53;2.60;99.90
59855;DHT22;45732;52.850;6.896;2023-04-06T05:08:18;2.70;99.90
59855;DHT22;45732;52.850;6.896;2023-04-06T05:10:44;2.70;99.90
59855;DHT22;45732;52.850;6.896;2023-04-06T05:13:11;2.80;99.90
59855;DHT22;45732;52.850;6.896;2023-04-06T05:15:36;2.80;99.90
59855;DHT22;45732;52.850;6.896;2023-04-06T05:18:09;2.80;99.90
59855;DHT22;45732;52.850;6.896;2023-04-06T05:20:35;2.80;99.90
59855;DHT22;45732;52.850;6.896;2023-04-06T05:23:01;2.80;99.90
59855;DHT22;45732;52.850;6.896;2023-04-06T05:25:27;2.80;99.90
59855;DHT22;45732;52.850;6.896;2023-04-06T05:27:53;2.90;99.90
59855;DHT22;45732;52.850;6.896;2023-04-06T05:30:19;2.90;99.90
59855;DHT22;45732;52.850;6.896;2023-04-06T05:32:45;2.80;99.90
59855;DHT22;45732;52.850;6.896;2023-04-06T05:35:11;2.80;99.90
59855;DHT22;45732;52.850;6.896;2023-04-06T05:37:38;2.80;99.90
59855;DHT22;45732;52.850;6.896;2023-04-06T05:40:04;2.80;99.90
59855;DHT22;45732;52.850;6.896;2023-04-06T05:42:40;2.90;99.90
59855;DHT22;45732;52.850;6.896;2023-04-06T05:45:10;2.90;99.90
59855;DHT22;45732;52.850;6.896;2023-04-06T05:47:36;2.90;99.90
59855;DHT22;45732;52.850;6.896;2023-04-06T05:50:02;3.00;99.90
59855;DHT22;45732;52.850;6.896;2023-04-06T05:52:28;3.00;99.90
59855;DHT22;45732;52.850;6.896;2023-04-06T05:54:54;3.10;99.90
59855;DHT22;45732;52.850;6.896;2023-04-06T05:57:20;3.10;99.90
59855;DHT22;45732;52.850;6.896;2023-04-06T05:59:46;3.10;99.90
59855;DHT22;45732;52.850;6.896;2023-04-06T06:02:11;3.20;99.90
59855;DHT22;45732;52.850;6.896;2023-04-06T06:04:37;3.20;99.90
59855;DHT22;45732;52.850;6.896;2023-04-06T06:07:03;3.20;99.90
59855;DHT22;45732;52.850;6.896;2023-04-06T06:09:29;3.30;99.90
59855;DHT22;45732;52.850;6.896;2023-04-06T06:11:55;3.30;99.90
59855;DHT22;45732;52.850;6.896;2023-04-06T06:14:21;3.30;99.90
59855;DHT22;45732;52.850;6.896;2023-04-06T06:16:47;3.30;99.90
59855;DHT22;45732;52.850;6.896;2023-04-06T06:19:13;3.40;99.90
59855;DHT22;45732;52.850;6.896;2023-04-06T06:21:39;3.50;99.90
59855;DHT22;45732;52.850;6.896;2023-04-06T06:24:06;3.50;99.90
59855;DHT22;45732;52.850;6.896;2023-04-06T06:26:32;3.60;99.90
59855;DHT22;45732;52.850;6.896;2023-04-06T06:28:57;3.60;99.90
59855;DHT22;45732;52.850;6.896;2023-04-06T06:31:23;3.70;99.90
59855;DHT22;45732;52.850;6.896;2023-04-06T06:33:50;3.70;99.90
59855;DHT22;45732;52.850;6.896;2023-04-06T06:36:19;3.80;99.90
59855;DHT22;45732;52.850;6.896;2023-04-06T06:38:45;3.80;99.90
59855;DHT22;45732;52.850;6.896;2023-04-06T06:41:11;3.90;99.90
59855;DHT22;45732;52.850;6.896;2023-04-06T06:43:37;3.90;99.90
59855;DHT22;45732;52.850;6.896;2023-04-06T06:46:03;4.00;99.90
59855;DHT22;45732;52.850;6.896;2023-04-06T06:48:29;4.10;99.90
59855;DHT22;45732;52.850;6.896;2023-04-06T06:50:55;4.20;99.90
59855;DHT22;45732;52.850;6.896;2023-04-06T06:53:21;4.30;99.90
59855;DHT22;45732;52.850;6.896;2023-04-06T06:55:46;4.40;99.90
59855;DHT22;45732;52.850;6.896;2023-04-06T06:58:14;4.40;99.90
59855;DHT22;45732;52.850;6.896;2023-04-06T07:00:40;4.50;99.90
59855;DHT22;45732;52.850;6.896;2023-04-06T07:03:06;4.50;99.90
59855;DHT22;45732;52.850;6.896;2023-04-06T07:05:32;4.60;99.90
59855;DHT22;45732;52.850;6.896;2023-04-06T07:07:58;4.50;99.90
59855;DHT22;45732;52.850;6.896;2023-04-06T07:10:23;4.50;99.90
59855;DHT22;45732;52.850;6.896;2023-04-06T07:12:49;4.70;99.90
59855;DHT22;45732;52.850;6.896;2023-04-06T07:15:16;4.80;99.90
59855;DHT22;45732;52.850;6.896;2023-04-06T07:17:43;4.90;99.90
59855;DHT22;45732;52.850;6.896;2023-04-06T07:20:11;5.00;99.90
59855;DHT22;45732;52.850;6.896;2023-04-06T07:22:38;5.10;99.90
59855;DHT22;45732;52.850;6.896;2023-04-06T07:25:04;5.10;99.90
59855;DHT22;45732;52.850;6.896;2023-04-06T07:27:30;5.20;99.90
59855;DHT22;45732;52.850;6.896;2023-04-06T07:29:56;5.30;99.90
59855;DHT22;45732;52.850;6.896;2023-04-06T07:32:21;5.40;99.90
59855;DHT22;45732;52.850;6.896;2023-04-06T07:34:47;5.50;99.90
59855;DHT22;45732;52.850;6.896;2023-04-06T07:37:13;5.70;99.90
59855;DHT22;45732;52.850;6.896;2023-04-06T07:39:38;5.80;99.90
59855;DHT22;45732;52.850;6.896;2023-04-06T07:42:06;5.90;99.90
59855;DHT22;45732;52.850;6.896;2023-04-06T07:44:31;6.00;99.90
59855;DHT22;45732;52.850;6.896;2023-04-06T07:46:57;6.10;99.90
59855;DHT22;45732;52.850;6.896;2023-04-06T07:49:23;6.10;99.90
59855;DHT22;45732;52.850;6.896;2023-04-06T07:51:49;6.20;99.90
59855;DHT22;45732;52.850;6.896;2023-04-06T07:54:15;6.20;99.90
59855;DHT22;45732;52.850;6.896;2023-04-06T07:56:40;6.20;99.90
59855;DHT22;45732;52.850;6.896;2023-04-06T07:59:06;6.30;99.90
59855;DHT22;45732;52.850;6.896;2023-04-06T08:01:32;6.40;99.90
59855;DHT22;45732;52.850;6.896;2023-04-06T08:03:58;6.50;99.90
59855;DHT22;45732;52.850;6.896;2023-04-06T08:06:24;6.60;99.90
59855;DHT22;45732;52.850;6.896;2023-04-06T08:08:50;6.60;99.90
59855;DHT22;45732;52.850;6.896;2023-04-06T08:11:16;6.80;99.90
59855;DHT22;45732;52.850;6.896;2023-04-06T08:13:41;6.90;99.90
59855;DHT22;45732;52.850;6.896;2023-04-06T08:16:07;6.90;99.90
59855;DHT22;45732;52.850;6.896;2023-04-06T08:18:33;7.00;99.90
59855;DHT22;45732;52.850;6.896;2023-04-06T08:20:58;7.20;99.90
59855;DHT22;45732;52.850;6.896;2023-04-06T08:23:24;7.30;99.90
59855;DHT22;45732;52.850;6.896;2023-04-06T08:25:50;7.40;99.90
59855;DHT22;45732;52.850;6.896;2023-04-06T08:28:18;7.50;99.90
59855;DHT22;45732;52.850;6.896;2023-04-06T08:30:44;7.60;99.90
59855;DHT22;45732;52.850;6.896;2023-04-06T08:33:11;7.70;99.90
59855;DHT22;45732;52.850;6.896;2023-04-06T08:35:37;7.80;99.90
59855;DHT22;45732;52.850;6.896;2023-04-06T08:38:03;7.90;99.90
59855;DHT22;45732;52.850;6.896;2023-04-06T08:40:29;8.00;99.90
59855;DHT22;45732;52.850;6.896;2023-04-06T08:42:56;8.10;99.90
59855;DHT22;45732;52.850;6.896;2023-04-06T08:45:25;8.10;99.90
59855;DHT22;45732;52.850;6.896;2023-04-06T08:47:51;8.30;99.90
59855;DHT22;45732;52.850;6.896;2023-04-06T08:50:18;8.30;99.90
59855;DHT22;45732;52.850;6.896;2023-04-06T08:52:47;8.40;99.90
59855;DHT22;45732;52.850;6.896;2023-04-06T08:55:13;8.60;99.90
59855;DHT22;45732;52.850;6.896;2023-04-06T08:57:39;8.70;99.90
59855;DHT22;45732;52.850;6.896;2023-04-06T09:00:08;8.80;99.90
59855;DHT22;45732;52.850;6.896;2023-04-06T09:02:41;8.90;99.90
59855;DHT22;45732;52.850;6.896;2023-04-06T09:05:08;9.00;99.90
59855;DHT22;45732;52.850;6.896;2023-04-06T09:07:36;9.10;99.90
59855;DHT22;45732;52.850;6.896;2023-04-06T09:10:03;9.10;99.90
59855;DHT22;45732;52.850;6.896;2023-04-06T09:12:31;9.30;99.90
59855;DHT22;45732;52.850;6.896;2023-04-06T09:14:58;9.40;99.90
59855;DHT22;45732;52.850;6.896;2023-04-06T09:17:29;9.50;99.90
59855;DHT22;45732;52.850;6.896;2023-04-06T09:19:56;9.50;99.90
59855;DHT22;45732;52.850;6.896;2023-04-06T09:22:22;9.50;99.90
59855;DHT22;45732;52.850;6.896;2023-04-06T09:24:51;9.60;99.90
59855;DHT22;45732;52.850;6.896;2023-04-06T09:27:18;9.70;99.90
59855;DHT22;45732;52.850;6.896;2023-04-06T09:30:06;9.80;99.90
59855;DHT22;45732;52.850;6.896;2023-04-06T09:32:32;9.90;99.90
59855;DHT22;45732;52.850;6.896;2023-04-06T09:35:09;10.00;99.90
59855;DHT22;45732;52.850;6.896;2023-04-06T09:37:35;10.10;99.90
59855;DHT22;45732;52.850;6.896;2023-04-06T09:40:07;10.20;99.90
59855;DHT22;45732;52.850;6.896;2023-04-06T09:42:34;10.30;99.90
59855;DHT22;45732;52.850;6.896;2023-04-06T09:45:03;10.40;99.90
59855;DHT22;45732;52.850;6.896;2023-04-06T09:47:33;10.50;99.90
59855;DHT22;45732;52.850;6.896;2023-04-06T09:50:02;10.60;99.90
59855;DHT22;45732;52.850;6.896;2023-04-06T09:52:33;10.70;99.90
59855;DHT22;45732;52.850;6.896;2023-04-06T09:55:04;10.70;99.90
59855;DHT22;45732;52.850;6.896;2023-04-06T09:57:52;10.70;99.90
59855;DHT22;45732;52.850;6.896;2023-04-06T10:00:22;10.80;99.90
59855;DHT22;45732;52.850;6.896;2023-04-06T10:05:54;10.70;99.90
59855;DHT22;45732;52.850;6.896;2023-04-06T10:08:23;10.70;99.90
59855;DHT22;45732;52.850;6.896;2023-04-06T10:10:50;10.80;99.90
59855;DHT22;45732;52.850;6.896;2023-04-06T10:13:18;10.70;99.90
59855;DHT22;45732;52.850;6.896;2023-04-06T10:15:44;10.70;99.90
59855;DHT22;45732;52.850;6.896;2023-04-06T10:18:10;10.70;99.90
59855;DHT22;45732;52.850;6.896;2023-04-06T10:20:49;10.70;99.90
59855;DHT22;45732;52.850;6.896;2023-04-06T10:23:26;10.70;99.90
59855;DHT22;45732;52.850;6.896;2023-04-06T10:25:57;10.70;99.90
59855;DHT22;45732;52.850;6.896;2023-04-06T10:28:23;10.80;99.90
59855;DHT22;45732;52.850;6.896;2023-04-06T10:30:49;10.90;99.90
59855;DHT22;45732;52.850;6.896;2023-04-06T10:33:21;11.00;99.90
59855;DHT22;45732;52.850;6.896;2023-04-06T10:35:47;11.10;99.90
59855;DHT22;45732;52.850;6.896;2023-04-06T10:38:13;11.20;99.90
59855;DHT22;45732;52.850;6.896;2023-04-06T10:40:41;11.30;99.90
59855;DHT22;45732;52.850;6.896;2023-04-06T10:43:13;11.20;99.90
59855;DHT22;45732;52.850;6.896;2023-04-06T10:45:40;11.30;99.90
59855;DHT22;45732;52.850;6.896;2023-04-06T10:48:16;11.40;99.90
59855;DHT22;45732;52.850;6.896;2023-04-06T10:50:44;11.40;99.90
59855;DHT22;45732;52.850;6.896;2023-04-06T10:53:10;11.50;99.90
59855;DHT22;45732;52.850;6.896;2023-04-06T10:55:39;11.40;99.90
59855;DHT22;45732;52.850;6.896;2023-04-06T10:58:08;11.50;99.90
59855;DHT22;45732;52.850;6.896;2023-04-06T11:00:35;11.70;99.90
59855;DHT22;45732;52.850;6.896;2023-04-06T11:03:01;11.80;99.90
59855;DHT22;45732;52.850;6.896;2023-04-06T11:05:27;11.90;99.90
59855;DHT22;45732;52.850;6.896;2023-04-06T11:07:56;11.90;99.90
59855;DHT22;45732;52.850;6.896;2023-04-06T11:10:22;11.90;99.90
59855;DHT22;45732;52.850;6.896;2023-04-06T11:12:53;11.80;99.90
59855;DHT22;45732;52.850;6.896;2023-04-06T11:15:20;11.70;99.90
59855;DHT22;45732;52.850;6.896;2023-04-06T11:17:46;11.80;99.90
59855;DHT22;45732;52.850;6.896;2023-04-06T11:20:12;11.90;99.90
59855;DHT22;45732;52.850;6.896;2023-04-06T11:22:51;12.10;99.90
59855;DHT22;45732;52.850;6.896;2023-04-06T11:25:18;12.10;99.90
59855;DHT22;45732;52.850;6.896;2023-04-06T11:27:45;12.20;99.90
59855;DHT22;45732;52.850;6.896;2023-04-06T11:30:12;12.30;99.90
59855;DHT22;45732;52.850;6.896;2023-04-06T11:32:43;12.10;99.90
59855;DHT22;45732;52.850;6.896;2023-04-06T11:35:24;12.20;99.90
59855;DHT22;45732;52.850;6.896;2023-04-06T11:37:50;12.40;99.90
59855;DHT22;45732;52.850;6.896;2023-04-06T11:40:23;12.40;98.60
59855;DHT22;45732;52.850;6.896;2023-04-06T11:42:54;12.40;98.20
59855;DHT22;45732;52.850;6.896;2023-04-06T11:45:20;12.30;98.00
59855;DHT22;45732;52.850;6.896;2023-04-06T11:47:59;12.30;98.40
59855;DHT22;45732;52.850;6.896;2023-04-06T11:50:24;12.30;97.80
59855;DHT22;45732;52.850;6.896;2023-04-06T11:53:01;12.40;99.50
59855;DHT22;45732;52.850;6.896;2023-04-06T11:55:28;12.50;99.90
59855;DHT22;45732;52.850;6.896;2023-04-06T11:57:54;12.50;98.60
59855;DHT22;45732;52.850;6.896;2023-04-06T12:00:20;12.60;99.90
59855;DHT22;45732;52.850;6.896;2023-04-06T12:02:47;12.60;99.50
59855;DHT22;45732;52.850;6.896;2023-04-06T12:05:13;12.60;99.30
59855;DHT22;45732;52.850;6.896;2023-04-06T12:07:39;12.70;99.30
59855;DHT22;45732;52.850;6.896;2023-04-06T12:10:05;12.50;99.60
59855;DHT22;45732;52.850;6.896;2023-04-06T12:12:31;12.50;99.90
59855;DHT22;45732;52.850;6.896;2023-04-06T12:14:57;12.60;99.90
59855;DHT22;45732;52.850;6.896;2023-04-06T12:17:24;12.50;99.90
59855;DHT22;45732;52.850;6.896;2023-04-06T12:19:50;12.50;99.80
59855;DHT22;45732;52.850;6.896;2023-04-06T12:22:18;12.50;99.40
59855;DHT22;45732;52.850;6.896;2023-04-06T12:24:44;12.50;99.70
59855;DHT22;45732;52.850;6.896;2023-04-06T12:27:10;12.60;99.90
59855;DHT22;45732;52.850;6.896;2023-04-06T12:29:37;12.70;99.90
59855;DHT22;45732;52.850;6.896;2023-04-06T12:32:03;12.60;98.50
59855;DHT22;45732;52.850;6.896;2023-04-06T12:34:30;12.70;98.20
59855;DHT22;45732;52.850;6.896;2023-04-06T12:36:55;12.70;97.50
59855;DHT22;45732;52.850;6.896;2023-04-06T12:39:22;12.70;98.40
59855;DHT22;45732;52.850;6.896;2023-04-06T12:41:48;12.80;98.30
59855;DHT22;45732;52.850;6.896;2023-04-06T12:44:13;12.90;98.90
59855;DHT22;45732;52.850;6.896;2023-04-06T12:46:39;12.90;98.60
59855;DHT22;45732;52.850;6.896;2023-04-06T12:49:05;13.00;98.70
59855;DHT22;45732;52.850;6.896;2023-04-06T12:51:31;13.00;98.60
59855;DHT22;45732;52.850;6.896;2023-04-06T12:53:57;12.90;96.90
59855;DHT22;45732;52.850;6.896;2023-04-06T12:56:23;12.90;97.40
59855;DHT22;45732;52.850;6.896;2023-04-06T12:58:51;12.90;97.60
59855;DHT22;45732;52.850;6.896;2023-04-06T13:01:17;12.90;96.80
59855;DHT22;45732;52.850;6.896;2023-04-06T13:03:43;12.90;97.90
59855;DHT22;45732;52.850;6.896;2023-04-06T13:06:09;13.00;98.50
59855;DHT22;45732;52.850;6.896;2023-04-06T13:08:36;12.90;97.50
59855;DHT22;45732;52.850;6.896;2023-04-06T13:11:05;13.00;97.70
59855;DHT22;45732;52.850;6.896;2023-04-06T13:13:33;12.90;96.90
59855;DHT22;45732;52.850;6.896;2023-04-06T13:16:03;13.00;97.50
59855;DHT22;45732;52.850;6.896;2023-04-06T13:18:30;13.00;97.10
59855;DHT22;45732;52.850;6.896;2023-04-06T13:20:58;13.10;97.40
59855;DHT22;45732;52.850;6.896;2023-04-06T13:23:25;13.00;97.30
59855;DHT22;45732;52.850;6.896;2023-04-06T13:26:17;13.00;97.40
59855;DHT22;45732;52.850;6.896;2023-04-06T13:28:43;13.10;96.30
59855;DHT22;45732;52.850;6.896;2023-04-06T13:31:09;13.10;96.80
59855;DHT22;45732;52.850;6.896;2023-04-06T13:33:35;13.10;97.70
59855;DHT22;45732;52.850;6.896;2023-04-06T13:36:01;13.20;97.80
59855;DHT22;45732;52.850;6.896;2023-04-06T13:38:27;13.20;97.70
59855;DHT22;45732;52.850;6.896;2023-04-06T13:40:53;13.10;96.60
59855;DHT22;45732;52.850;6.896;2023-04-06T13:43:19;13.10;97.40
59855;DHT22;45732;52.850;6.896;2023-04-06T13:45:50;13.10;96.80
59855;DHT22;45732;52.850;6.896;2023-04-06T13:48:16;13.10;97.30
59855;DHT22;45732;52.850;6.896;2023-04-06T13:50:42;13.10;97.20
59855;DHT22;45732;52.850;6.896;2023-04-06T13:53:08;13.10;96.90
59855;DHT22;45732;52.850;6.896;2023-04-06T13:55:34;13.20;96.50
59855;DHT22;45732;52.850;6.896;2023-04-06T13:57:59;13.10;97.40
59855;DHT22;45732;52.850;6.896;2023-04-06T14:00:25;13.20;97.40
59855;DHT22;45732;52.850;6.896;2023-04-06T14:02:52;13.20;97.60
59855;DHT22;45732;52.850;6.896;2023-04-06T14:05:18;13.20;97.30
59855;DHT22;45732;52.850;6.896;2023-04-06T14:07:44;13.20;96.70
59855;DHT22;45732;52.850;6.896;2023-04-06T14:10:10;13.20;96.80
59855;DHT22;45732;52.850;6.896;2023-04-06T14:12:41;13.10;96.50
59855;DHT22;45732;52.850;6.896;2023-04-06T14:15:08;13.00;96.70
59855;DHT22;45732;52.850;6.896;2023-04-06T14:17:34;13.00;97.10
59855;DHT22;45732;52.850;6.896;2023-04-06T14:19:59;13.10;97.50
59855;DHT22;45732;52.850;6.896;2023-04-06T14:22:25;13.10;97.80
59855;DHT22;45732;52.850;6.896;2023-04-06T14:24:51;13.10;98.20
59855;DHT22;45732;52.850;6.896;2023-04-06T14:27:17;13.00;97.90
59855;DHT22;45732;52.850;6.896;2023-04-06T14:29:42;13.00;98.40
59855;DHT22;45732;52.850;6.896;2023-04-06T14:32:08;12.90;98.50
59855;DHT22;45732;52.850;6.896;2023-04-06T14:34:37;12.80;98.60
59855;DHT22;45732;52.850;6.896;2023-04-06T14:37:03;12.90;99.00
59855;DHT22;45732;52.850;6.896;2023-04-06T14:39:28;12.90;98.90
59855;DHT22;45732;52.850;6.896;2023-04-06T14:41:54;12.80;99.10
59855;DHT22;45732;52.850;6.896;2023-04-06T14:44:21;12.70;99.20
59855;DHT22;45732;52.850;6.896;2023-04-06T14:46:47;12.70;99.10
59855;DHT22;45732;52.850;6.896;2023-04-06T14:49:12;12.50;98.90
59855;DHT22;45732;52.850;6.896;2023-04-06T14:51:38;12.50;99.20
59855;DHT22;45732;52.850;6.896;2023-04-06T14:54:04;12.40;99.40
59855;DHT22;45732;52.850;6.896;2023-04-06T14:56:30;12.40;99.00
59855;DHT22;45732;52.850;6.896;2023-04-06T14:58:59;12.30;99.40
59855;DHT22;45732;52.850;6.896;2023-04-06T15:01:27;12.40;99.90
59855;DHT22;45732;52.850;6.896;2023-04-06T15:03:53;12.30;99.40
59855;DHT22;45732;52.850;6.896;2023-04-06T15:06:18;12.20;99.40
59855;DHT22;45732;52.850;6.896;2023-04-06T15:08:46;12.20;99.60
59855;DHT22;45732;52.850;6.896;2023-04-06T15:11:12;12.10;99.90
59855;DHT22;45732;52.850;6.896;2023-04-06T15:13:39;12.00;99.90
59855;DHT22;45732;52.850;6.896;2023-04-06T15:16:05;12.00;99.90
59855;DHT22;45732;52.850;6.896;2023-04-06T15:18:32;11.90;99.90
59855;DHT22;45732;52.850;6.896;2023-04-06T15:20:58;11.80;99.90
59855;DHT22;45732;52.850;6.896;2023-04-06T15:23:24;11.70;99.90
59855;DHT22;45732;52.850;6.896;2023-04-06T15:25:50;11.80;99.90
59855;DHT22;45732;52.850;6.896;2023-04-06T15:28:16;11.70;99.90
59855;DHT22;45732;52.850;6.896;2023-04-06T15:30:42;11.80;99.90
59855;DHT22;45732;52.850;6.896;2023-04-06T15:33:08;11.80;99.90
59855;DHT22;45732;52.850;6.896;2023-04-06T15:35:34;11.80;99.90
59855;DHT22;45732;52.850;6.896;2023-04-06T15:38:05;11.80;99.90
59855;DHT22;45732;52.850;6.896;2023-04-06T15:40:32;11.80;99.90